createdAt,value
2022-08-30T00:01:05.172Z,18.30
2022-08-30T00:03:36.927Z,18.20
2022-08-30T00:06:06.552Z,18.24
2022-08-30T00:08:33.521Z,18.39
2022-08-30T00:11:01.527Z,18.38
2022-08-30T00:13:28.282Z,18.42
2022-08-30T00:15:54.880Z,18.45
2022-08-30T00:18:22.290Z,18.36
2022-08-30T00:20:52.098Z,18.27
2022-08-30T00:23:19.780Z,18.31
2022-08-30T00:25:46.255Z,18.18
2022-08-30T00:28:14.443Z,18.10
2022-08-30T00:30:41.753Z,18.13
2022-08-30T00:33:08.879Z,18.07
2022-08-30T00:35:35.518Z,18.05
2022-08-30T00:38:02.250Z,18.06
2022-08-30T00:40:30.206Z,17.87
2022-08-30T00:42:59.930Z,17.89
2022-08-30T00:45:35.870Z,17.99
2022-08-30T00:48:05.042Z,17.79
2022-08-30T00:50:36.124Z,17.84
2022-08-30T00:53:07.091Z,17.76
2022-08-30T00:55:34.381Z,17.80
2022-08-30T00:58:07.104Z,17.69
2022-08-30T01:00:34.181Z,17.50
2022-08-30T01:03:00.862Z,17.57
2022-08-30T01:05:27.592Z,17.49
2022-08-30T01:07:54.075Z,17.39
2022-08-30T01:10:20.732Z,17.51
2022-08-30T01:12:47.849Z,17.20
2022-08-30T01:15:15.741Z,17.23
2022-08-30T01:17:44.486Z,17.23
2022-08-30T01:20:20.510Z,17.11
2022-08-30T01:22:49.676Z,16.94
2022-08-30T01:25:25.010Z,17.08
2022-08-30T01:28:01.578Z,17.09
2022-08-30T01:30:30.193Z,17.08
2022-08-30T01:33:00.131Z,16.98
2022-08-30T01:35:28.371Z,17.01
2022-08-30T01:37:55.821Z,16.92
2022-08-30T01:40:22.468Z,16.98
2022-08-30T01:42:50.064Z,16.99
2022-08-30T01:45:16.578Z,16.27
2022-08-30T01:47:43.309Z,16.32
2022-08-30T01:50:10.793Z,16.34
2022-08-30T01:52:38.660Z,16.37
2022-08-30T01:55:06.958Z,16.52
2022-08-30T01:57:33.434Z,16.57
2022-08-30T02:00:00.007Z,16.54
2022-08-30T02:02:28.890Z,16.67
2022-08-30T02:04:56.817Z,16.13
2022-08-30T02:07:24.851Z,16.08
2022-08-30T02:09:52.672Z,16.20
2022-08-30T02:12:19.714Z,16.21
2022-08-30T02:14:46.245Z,16.36
2022-08-30T02:17:14.192Z,16.44
2022-08-30T02:19:41.616Z,16.64
2022-08-30T02:22:08.223Z,16.69
2022-08-30T02:24:34.747Z,16.64
2022-08-30T02:27:01.540Z,16.68
2022-08-30T02:29:28.191Z,16.69
2022-08-30T02:31:54.682Z,16.71
2022-08-30T02:34:21.378Z,16.77
2022-08-30T02:36:47.969Z,16.87
2022-08-30T02:39:14.521Z,16.98
2022-08-30T02:41:42.254Z,16.73
2022-08-30T02:44:10.689Z,16.26
2022-08-30T02:46:37.731Z,16.39
2022-08-30T02:51:52.094Z,16.62
2022-08-30T02:54:20.123Z,16.51
2022-08-30T02:56:48.124Z,16.23
2022-08-30T02:59:16.259Z,16.26
2022-08-30T03:01:43.114Z,16.27
2022-08-30T03:04:10.175Z,15.82
2022-08-30T03:06:37.305Z,16.08
2022-08-30T03:09:04.272Z,16.09
2022-08-30T03:11:30.978Z,16.16
2022-08-30T03:13:57.470Z,16.12
2022-08-30T03:16:24.012Z,16.05
2022-08-30T03:18:50.537Z,15.97
2022-08-30T03:21:17.819Z,16.07
2022-08-30T03:23:44.954Z,16.37
2022-08-30T03:26:14.683Z,16.28
2022-08-30T03:28:44.398Z,16.52
2022-08-30T03:31:12.024Z,16.53
2022-08-30T03:33:40.403Z,16.56
2022-08-30T03:36:08.100Z,16.51
2022-08-30T03:38:34.823Z,16.33
2022-08-30T03:41:01.554Z,16.42
2022-08-30T03:43:28.538Z,16.28
2022-08-30T03:45:56.419Z,16.21
2022-08-30T03:48:22.930Z,16.33
2022-08-30T03:50:49.439Z,16.29
2022-08-30T03:53:16.114Z,16.38
2022-08-30T03:55:42.871Z,16.47
2022-08-30T03:58:09.425Z,16.40
2022-08-30T04:00:36.174Z,16.37
2022-08-30T04:03:02.647Z,16.40
2022-08-30T04:05:29.484Z,16.25
2022-08-30T04:07:55.957Z,16.34
2022-08-30T04:10:22.520Z,16.43
2022-08-30T04:12:50.120Z,16.62
2022-08-30T04:15:18.385Z,16.52
2022-08-30T04:17:45.064Z,16.59
2022-08-30T04:20:11.884Z,16.63
2022-08-30T04:22:38.428Z,16.69
2022-08-30T04:25:06.661Z,16.62
2022-08-30T04:27:33.269Z,16.49
2022-08-30T04:30:00.225Z,16.45
2022-08-30T04:32:27.310Z,16.32
2022-08-30T04:34:59.624Z,16.41
2022-08-30T04:37:26.300Z,16.18
2022-08-30T04:39:57.701Z,15.86
2022-08-30T04:42:24.750Z,16.06
2022-08-30T04:44:51.511Z,15.92
2022-08-30T04:47:18.680Z,16.02
2022-08-30T04:49:45.359Z,15.85
2022-08-30T04:52:11.901Z,16.00
2022-08-30T04:54:38.528Z,15.85
2022-08-30T04:57:06.578Z,15.85
2022-08-30T04:59:33.387Z,15.80
2022-08-30T05:02:00.207Z,15.74
2022-08-30T05:04:26.843Z,15.61
2022-08-30T05:06:53.839Z,15.37
2022-08-30T05:09:21.609Z,15.51
2022-08-30T05:11:48.712Z,15.35
2022-08-30T05:14:15.299Z,15.61
2022-08-30T05:16:42.235Z,15.59
2022-08-30T05:19:09.352Z,15.69
2022-08-30T05:21:36.031Z,15.96
2022-08-30T05:24:02.783Z,16.17
2022-08-30T05:26:32.431Z,16.28
2022-08-30T05:28:59.265Z,16.43
2022-08-30T05:31:32.567Z,16.33
2022-08-30T05:33:59.680Z,16.59
2022-08-30T05:36:28.953Z,16.40
2022-08-30T05:38:56.096Z,16.61
2022-08-30T05:41:26.546Z,16.44
2022-08-30T05:43:55.774Z,16.57
2022-08-30T05:46:22.439Z,16.28
2022-08-30T05:48:49.991Z,16.56
2022-08-30T05:51:22.736Z,16.50
2022-08-30T05:53:50.241Z,16.28
2022-08-30T05:56:20.095Z,16.31
2022-08-30T05:58:47.661Z,16.55
2022-08-30T06:01:26.858Z,16.81
2022-08-30T06:03:55.154Z,16.88
2022-08-30T06:06:21.718Z,16.98
2022-08-30T06:08:48.987Z,16.72
2022-08-30T06:11:19.264Z,16.64
2022-08-30T06:13:46.283Z,16.81
2022-08-30T06:16:14.947Z,16.74
2022-08-30T06:18:41.546Z,16.75
2022-08-30T06:21:11.156Z,16.58
2022-08-30T06:23:41.093Z,16.84
2022-08-30T06:26:08.079Z,17.16
2022-08-30T06:28:34.891Z,17.18
2022-08-30T06:31:01.463Z,16.64
2022-08-30T06:33:28.038Z,17.02
2022-08-30T06:35:58.806Z,17.26
2022-08-30T06:38:26.584Z,17.08
2022-08-30T06:40:53.060Z,16.73
2022-08-30T06:43:20.795Z,16.65
2022-08-30T06:45:47.493Z,16.55
2022-08-30T06:48:14.036Z,16.68
2022-08-30T06:50:42.042Z,16.61
2022-08-30T06:53:09.676Z,16.96
2022-08-30T06:55:37.343Z,16.72
2022-08-30T06:58:04.740Z,17.11
2022-08-30T07:00:31.292Z,17.22
2022-08-30T07:02:58.554Z,16.87
2022-08-30T07:05:25.033Z,17.17
2022-08-30T07:07:53.325Z,17.35
2022-08-30T07:10:21.414Z,17.26
2022-08-30T07:12:48.578Z,17.10
2022-08-30T07:15:15.084Z,17.50
2022-08-30T07:18:00.729Z,17.65
2022-08-30T07:20:27.290Z,17.85
2022-08-30T07:22:53.795Z,17.80
2022-08-30T07:25:20.383Z,17.69
2022-08-30T07:27:46.903Z,17.68
2022-08-30T07:30:14.106Z,17.72
2022-08-30T07:32:40.945Z,17.69
2022-08-30T07:35:07.781Z,17.64
2022-08-30T07:37:34.357Z,17.57
2022-08-30T07:40:00.931Z,17.60
2022-08-30T07:42:27.453Z,17.92
2022-08-30T07:44:56.790Z,18.36
2022-08-30T07:47:23.622Z,18.15
2022-08-30T07:49:50.229Z,18.23
2022-08-30T07:52:16.800Z,18.39
2022-08-30T07:54:43.311Z,18.33
2022-08-30T07:57:09.913Z,18.33
2022-08-30T07:59:36.889Z,18.35
2022-08-30T08:02:04.108Z,18.60
2022-08-30T08:04:30.711Z,18.88
2022-08-30T08:06:57.203Z,19.12
2022-08-30T08:09:23.675Z,18.77
2022-08-30T08:11:50.136Z,19.04
2022-08-30T08:14:16.666Z,19.09
2022-08-30T08:16:44.764Z,19.22
2022-08-30T08:19:12.277Z,19.40
2022-08-30T08:21:38.871Z,19.47
2022-08-30T08:24:05.956Z,18.98
2022-08-30T08:26:36.704Z,19.22
2022-08-30T08:29:04.676Z,19.03
2022-08-30T08:31:33.369Z,19.53
2022-08-30T08:36:33.977Z,19.35
2022-08-30T08:39:01.002Z,19.40
2022-08-30T08:41:39.841Z,19.63
2022-08-30T08:44:14.129Z,19.84
2022-08-30T08:46:58.243Z,19.82
2022-08-30T08:49:25.347Z,19.68
2022-08-30T08:52:10.451Z,19.89
2022-08-30T08:54:53.888Z,20.03
2022-08-30T08:57:24.718Z,19.91
2022-08-30T08:59:54.276Z,20.30
2022-08-30T09:02:28.528Z,20.39
2022-08-30T09:04:59.519Z,20.56
2022-08-30T09:07:39.870Z,20.53
2022-08-30T09:10:07.278Z,20.56
2022-08-30T09:12:34.121Z,20.51
2022-08-30T09:15:17.973Z,20.33
2022-08-30T09:18:19.374Z,20.37
2022-08-30T09:20:49.062Z,20.68
2022-08-30T09:23:15.449Z,20.68
2022-08-30T09:26:06.665Z,20.91
2022-08-30T09:28:43.164Z,20.56
2022-08-30T09:31:48.755Z,21.12
2022-08-30T09:34:21.091Z,20.35
2022-08-30T09:36:52.827Z,20.91
2022-08-30T09:39:19.336Z,21.13
2022-08-30T09:41:50.244Z,20.74
2022-08-30T09:44:18.524Z,21.01
2022-08-30T09:46:48.799Z,20.99
2022-08-30T09:49:37.974Z,21.36
2022-08-30T09:52:16.901Z,21.47
2022-08-30T09:55:08.129Z,21.32
2022-08-30T09:57:37.097Z,21.39
2022-08-30T10:00:15.197Z,21.24
2022-08-30T10:03:07.552Z,21.59
2022-08-30T10:05:52.018Z,21.98
2022-08-30T10:08:45.428Z,21.87
2022-08-30T10:11:16.007Z,22.19
2022-08-30T10:13:56.300Z,22.30
2022-08-30T10:17:04.382Z,22.09
2022-08-30T10:19:57.611Z,22.13
2022-08-30T10:22:52.337Z,22.31
2022-08-30T10:25:30.231Z,22.07
2022-08-30T10:28:03.688Z,22.62
2022-08-30T10:30:33.642Z,22.34
2022-08-30T10:33:10.098Z,22.19
2022-08-30T10:35:43.017Z,22.69
2022-08-30T10:38:21.802Z,22.86
2022-08-30T10:41:13.937Z,22.15
2022-08-30T10:43:54.640Z,22.62
2022-08-30T10:46:33.038Z,22.68
2022-08-30T10:49:04.943Z,22.60
2022-08-30T10:51:42.007Z,22.68
2022-08-30T10:54:18.648Z,22.83
2022-08-30T10:56:49.399Z,23.00
2022-08-30T10:59:18.449Z,22.74
2022-08-30T11:02:06.582Z,22.96
2022-08-30T11:05:07.178Z,23.06
2022-08-30T11:07:52.215Z,22.70
2022-08-30T11:10:29.122Z,23.17
2022-08-30T11:13:09.723Z,23.19
2022-08-30T11:15:52.517Z,22.79
2022-08-30T11:18:20.247Z,23.33
2022-08-30T11:20:53.225Z,23.33
2022-08-30T11:23:29.119Z,23.16
2022-08-30T11:26:15.984Z,23.26
2022-08-30T11:28:47.280Z,23.18
2022-08-30T11:31:23.603Z,23.55
2022-08-30T11:33:52.438Z,23.68
2022-08-30T11:36:46.273Z,23.97
2022-08-30T11:39:49.083Z,23.60
2022-08-30T11:42:53.703Z,23.52
2022-08-30T11:45:24.673Z,23.77
2022-08-30T11:48:05.655Z,23.15
2022-08-30T11:50:55.146Z,23.60
2022-08-30T11:53:27.476Z,23.75
2022-08-30T11:56:04.204Z,23.72
2022-08-30T11:58:54.485Z,23.69
2022-08-30T12:01:51.535Z,24.02
2022-08-30T12:04:22.834Z,24.08
2022-08-30T12:06:59.021Z,23.90
2022-08-30T12:09:26.308Z,24.10
2022-08-30T12:11:52.770Z,23.71
2022-08-30T12:14:34.978Z,24.20
2022-08-30T12:17:22.181Z,24.72
2022-08-30T12:19:50.536Z,24.82
2022-08-30T12:22:18.479Z,25.14
2022-08-30T12:24:51.717Z,25.14
2022-08-30T12:27:23.292Z,25.07
2022-08-30T12:30:02.941Z,24.95
2022-08-30T12:32:31.157Z,25.29
2022-08-30T12:35:00.244Z,24.84
2022-08-30T12:37:34.104Z,24.42
2022-08-30T12:40:15.141Z,24.65
2022-08-30T12:42:51.289Z,25.28
2022-08-30T12:45:21.368Z,25.51
2022-08-30T12:47:55.144Z,25.52
2022-08-30T12:50:28.063Z,25.64
2022-08-30T12:53:01.273Z,25.48
2022-08-30T12:55:33.866Z,25.33
2022-08-30T12:58:04.108Z,25.85
2022-08-30T13:00:39.716Z,25.39
2022-08-30T13:03:36.699Z,25.47
2022-08-30T13:06:07.921Z,25.45
2022-08-30T13:08:38.260Z,25.43
2022-08-30T13:11:08.812Z,25.62
2022-08-30T13:13:44.578Z,25.64
2022-08-30T13:16:24.653Z,25.87
2022-08-30T13:19:15.229Z,25.41
2022-08-30T13:21:53.760Z,25.49
2022-08-30T13:24:24.804Z,25.02
2022-08-30T13:26:54.296Z,24.84
2022-08-30T13:29:25.371Z,24.76
2022-08-30T13:31:52.242Z,25.02
2022-08-30T13:34:22.248Z,24.83
2022-08-30T13:36:53.286Z,25.22
2022-08-30T13:39:21.696Z,25.86
2022-08-30T13:41:48.901Z,25.88
2022-08-30T13:44:15.955Z,25.68
2022-08-30T13:46:52.294Z,25.36
2022-08-30T13:52:22.953Z,26.01
2022-08-30T13:54:54.837Z,26.11
2022-08-30T14:00:18.968Z,25.89
2022-08-30T14:02:54.158Z,25.26
2022-08-30T14:05:48.330Z,25.03
2022-08-30T14:11:06.159Z,24.90
2022-08-30T14:13:32.870Z,24.55
2022-08-30T14:18:47.971Z,24.77
2022-08-30T14:21:15.606Z,25.21
2022-08-30T14:23:42.161Z,25.62
2022-08-30T14:26:14.317Z,25.38
2022-08-30T14:28:44.832Z,25.07
2022-08-30T14:31:12.260Z,25.16
2022-08-30T14:33:39.978Z,25.13
2022-08-30T14:36:12.487Z,25.36
2022-08-30T14:38:42.625Z,25.44
2022-08-30T14:41:10.747Z,25.18
2022-08-30T14:43:39.620Z,25.33
2022-08-30T14:46:06.225Z,24.96
2022-08-30T14:48:32.870Z,24.75
2022-08-30T14:50:59.478Z,25.07
2022-08-30T14:53:26.390Z,24.93
2022-08-30T14:55:52.904Z,25.43
2022-08-30T14:58:19.531Z,25.17
2022-08-30T15:00:52.790Z,25.64
2022-08-30T15:03:19.843Z,25.19
2022-08-30T15:05:53.015Z,25.13
2022-08-30T15:08:19.900Z,25.17
2022-08-30T15:10:47.410Z,25.27
2022-08-30T15:13:14.084Z,25.51
2022-08-30T15:15:42.705Z,25.41
2022-08-30T15:18:09.659Z,25.50
2022-08-30T15:20:36.425Z,25.25
2022-08-30T15:23:03.024Z,25.23
2022-08-30T15:25:31.784Z,25.50
2022-08-30T15:27:58.321Z,24.99
2022-08-30T15:30:25.201Z,25.10
2022-08-30T15:32:51.791Z,25.19
2022-08-30T15:35:18.482Z,24.93
2022-08-30T15:37:45.052Z,25.00
2022-08-30T15:40:11.725Z,25.10
2022-08-30T15:42:39.621Z,25.10
2022-08-30T15:45:06.915Z,25.01
2022-08-30T15:47:33.493Z,25.19
2022-08-30T15:50:04.109Z,25.49
2022-08-30T15:52:31.118Z,25.39
2022-08-30T15:54:58.375Z,25.68
2022-08-30T15:57:25.493Z,25.59
2022-08-30T15:59:54.351Z,25.51
2022-08-30T16:02:21.821Z,25.32
2022-08-30T16:04:54.126Z,24.91
2022-08-30T16:07:20.642Z,24.87
2022-08-30T16:09:47.553Z,24.41
2022-08-30T16:12:22.336Z,24.73
2022-08-30T16:14:50.451Z,24.56
2022-08-30T16:17:16.973Z,24.52
2022-08-30T16:19:44.823Z,24.58
2022-08-30T16:22:11.580Z,24.32
2022-08-30T16:24:39.579Z,24.34
2022-08-30T16:27:08.779Z,24.61
2022-08-30T16:29:35.608Z,24.56
2022-08-30T16:32:02.318Z,24.20
2022-08-30T16:34:28.917Z,24.15
2022-08-30T16:36:55.485Z,24.10
2022-08-30T16:39:22.309Z,24.13
2022-08-30T16:41:49.092Z,24.11
2022-08-30T16:44:18.546Z,24.39
2022-08-30T16:46:52.971Z,24.64
2022-08-30T16:49:20.275Z,24.19
2022-08-30T16:51:50.303Z,24.19
2022-08-30T16:54:17.559Z,24.32
2022-08-30T16:56:45.707Z,24.73
2022-08-30T16:59:13.155Z,23.98
2022-08-30T17:01:42.309Z,24.11
2022-08-30T17:04:10.407Z,24.22
2022-08-30T17:06:37.359Z,23.90
2022-08-30T17:09:06.170Z,24.09
2022-08-30T17:11:34.341Z,24.12
2022-08-30T17:14:01.613Z,24.04
2022-08-30T17:16:29.911Z,23.94
2022-08-30T17:19:00.502Z,23.63
2022-08-30T17:21:29.199Z,23.78
2022-08-30T17:24:01.886Z,23.76
2022-08-30T17:26:35.698Z,23.66
2022-08-30T17:29:03.460Z,23.82
2022-08-30T17:31:31.125Z,23.46
2022-08-30T17:34:03.194Z,23.76
2022-08-30T17:36:48.161Z,23.53
2022-08-30T17:39:16.265Z,23.73
2022-08-30T17:41:49.857Z,23.56
2022-08-30T17:44:33.307Z,23.23
2022-08-30T17:47:00.325Z,23.00
2022-08-30T17:49:28.951Z,23.04
2022-08-30T17:51:57.278Z,23.31
2022-08-30T17:54:26.648Z,23.31
2022-08-30T17:56:53.568Z,23.22
2022-08-30T17:59:25.409Z,23.26
2022-08-30T18:01:53.816Z,23.22
2022-08-30T18:04:21.145Z,23.04
2022-08-30T18:06:51.396Z,22.68
2022-08-30T18:09:18.225Z,22.73
2022-08-30T18:11:44.710Z,22.35
2022-08-30T18:14:11.538Z,22.32
2022-08-30T18:16:53.174Z,22.50
2022-08-30T18:19:26.208Z,22.10
2022-08-30T18:21:53.709Z,22.20
2022-08-30T18:24:21.437Z,21.89
2022-08-30T18:26:48.154Z,21.95
2022-08-30T18:29:18.987Z,22.23
2022-08-30T18:31:55.362Z,22.14
2022-08-30T18:34:21.832Z,21.91
2022-08-30T18:36:48.755Z,21.96
2022-08-30T18:39:15.250Z,21.83
2022-08-30T18:41:43.231Z,22.01
2022-08-30T18:44:26.814Z,22.04
2022-08-30T18:46:56.682Z,21.89
2022-08-30T18:49:24.956Z,21.80
2022-08-30T18:51:51.475Z,21.77
2022-08-30T18:54:18.738Z,21.43
2022-08-30T18:56:45.782Z,21.51
2022-08-30T18:59:12.998Z,21.55
2022-08-30T19:01:40.385Z,21.62
2022-08-30T19:04:07.705Z,21.69
2022-08-30T19:06:34.568Z,21.33
2022-08-30T19:09:01.350Z,21.17
2022-08-30T19:11:28.020Z,21.19
2022-08-30T19:13:54.965Z,21.27
2022-08-30T19:16:22.007Z,21.05
2022-08-30T19:18:48.781Z,20.91
2022-08-30T19:21:15.482Z,21.02
2022-08-30T19:23:43.559Z,21.25
2022-08-30T19:26:10.936Z,21.01
2022-08-30T19:28:37.863Z,21.07
2022-08-30T19:31:04.749Z,20.69
2022-08-30T19:33:33.428Z,21.09
2022-08-30T19:36:00.574Z,20.79
2022-08-30T19:38:27.282Z,20.65
2022-08-30T19:41:00.924Z,20.38
2022-08-30T19:43:28.292Z,20.53
2022-08-30T19:45:58.840Z,20.32
2022-08-30T19:48:29.455Z,20.37
2022-08-30T19:51:00.134Z,20.46
2022-08-30T19:53:27.084Z,20.55
2022-08-30T19:55:53.902Z,20.58
2022-08-30T19:58:20.358Z,20.45
2022-08-30T20:01:01.164Z,20.65
2022-08-30T20:03:34.016Z,20.46
2022-08-30T20:06:01.326Z,20.44
2022-08-30T20:08:29.970Z,20.47
2022-08-30T20:10:57.045Z,20.47
2022-08-30T20:13:24.077Z,20.40
2022-08-30T20:15:55.763Z,20.65
2022-08-30T20:18:23.387Z,20.55
2022-08-30T20:20:50.260Z,20.22
2022-08-30T20:23:21.653Z,20.15
2022-08-30T20:25:51.920Z,20.21
2022-08-30T20:28:20.525Z,20.10
2022-08-30T20:30:48.158Z,20.39
2022-08-30T20:33:14.690Z,20.25
2022-08-30T20:35:48.740Z,20.31
2022-08-30T20:38:21.177Z,20.24
2022-08-30T20:40:50.358Z,20.57
2022-08-30T20:43:22.289Z,20.11
2022-08-30T20:45:49.029Z,20.18
2022-08-30T20:48:15.981Z,20.34
2022-08-30T20:50:43.482Z,20.30
2022-08-30T20:53:10.955Z,20.31
2022-08-30T20:55:46.700Z,20.29
2022-08-30T20:58:14.639Z,20.19
2022-08-30T21:00:45.724Z,20.27
2022-08-30T21:03:27.792Z,20.60
2022-08-30T21:05:54.891Z,20.49
2022-08-30T21:08:21.459Z,20.49
2022-08-30T21:10:48.050Z,20.46
2022-08-30T21:13:14.752Z,20.60
2022-08-30T21:15:45.688Z,20.53
2022-08-30T21:18:13.658Z,20.35
2022-08-30T21:20:40.315Z,20.40
2022-08-30T21:23:06.915Z,20.49
2022-08-30T21:25:34.132Z,20.41
2022-08-30T21:28:00.940Z,20.33
2022-08-30T21:30:27.452Z,20.46
2022-08-30T21:32:55.082Z,20.26
2022-08-30T21:35:45.041Z,20.06
2022-08-30T21:38:11.526Z,19.97
2022-08-30T21:40:38.213Z,20.16
2022-08-30T21:43:06.043Z,20.15
2022-08-30T21:45:32.734Z,20.01
2022-08-30T21:47:59.359Z,19.99
2022-08-30T21:50:25.868Z,20.15
2022-08-30T21:52:52.797Z,19.91
2022-08-30T21:55:19.272Z,19.94
2022-08-30T21:57:45.753Z,19.78
2022-08-30T22:00:18.855Z,20.01
2022-08-30T22:02:45.581Z,19.90
2022-08-30T22:05:15.717Z,19.99
2022-08-30T22:07:42.203Z,20.22
2022-08-30T22:10:10.489Z,19.87
2022-08-30T22:12:37.032Z,19.68
2022-08-30T22:15:05.004Z,19.94
2022-08-30T22:17:31.754Z,19.77
2022-08-30T22:19:58.229Z,19.87
2022-08-30T22:22:24.770Z,19.94
2022-08-30T22:24:51.328Z,19.82
2022-08-30T22:27:17.835Z,19.84
2022-08-30T22:29:44.321Z,19.64
2022-08-30T22:32:10.871Z,19.70
2022-08-30T22:34:38.702Z,19.50
2022-08-30T22:37:05.197Z,19.74
2022-08-30T22:39:31.742Z,19.71
2022-08-30T22:41:58.233Z,19.79
2022-08-30T22:44:25.421Z,19.68
2022-08-30T22:46:51.884Z,19.75
2022-08-30T22:49:18.360Z,19.44
2022-08-30T22:51:44.839Z,19.29
2022-08-30T22:54:11.381Z,19.27
2022-08-30T22:56:39.654Z,19.34
2022-08-30T22:59:06.517Z,19.19
2022-08-30T23:01:39.865Z,19.19
2022-08-30T23:04:08.162Z,19.25
2022-08-30T23:06:35.274Z,19.14
2022-08-30T23:09:03.297Z,19.24
2022-08-30T23:11:30.696Z,18.98
2022-08-30T23:14:00.949Z,19.23
2022-08-30T23:16:27.440Z,19.29
2022-08-30T23:18:54.002Z,19.20
2022-08-30T23:21:26.579Z,19.03
2022-08-30T23:24:13.697Z,19.07
2022-08-30T23:27:00.514Z,19.13
2022-08-30T23:29:46.253Z,19.10
2022-08-30T23:32:32.141Z,19.10
2022-08-30T23:35:17.385Z,19.13
2022-08-30T23:38:02.838Z,18.88
2022-08-30T23:40:48.175Z,18.80
2022-08-30T23:43:33.364Z,19.11
2022-08-30T23:46:19.478Z,18.89
2022-08-30T23:49:06.046Z,18.80
2022-08-30T23:51:51.801Z,18.74
2022-08-30T23:54:36.762Z,18.52
2022-08-30T23:57:23.313Z,18.86
